createdAt,value
2018-08-20T00:00:44.527Z,23.00
2018-08-20T00:03:12.962Z,22.90
2018-08-20T00:05:43.394Z,22.80
2018-08-20T00:08:11.684Z,22.70
2018-08-20T00:10:40.006Z,22.70
2018-08-20T00:13:08.303Z,22.70
2018-08-20T00:15:36.656Z,22.70
2018-08-20T00:18:04.959Z,22.70
2018-08-20T00:20:33.275Z,22.70
2018-08-20T00:23:01.625Z,22.70
2018-08-20T00:25:29.939Z,22.60
2018-08-20T00:27:58.256Z,22.60
2018-08-20T00:30:26.567Z,22.50
2018-08-20T00:32:54.835Z,22.60
2018-08-20T00:35:23.170Z,22.50
2018-08-20T00:37:52.459Z,22.40
2018-08-20T00:40:21.631Z,22.30
2018-08-20T00:42:49.955Z,22.30
2018-08-20T00:45:18.295Z,22.20
2018-08-20T00:47:46.635Z,22.20
2018-08-20T00:50:14.924Z,22.10
2018-08-20T00:52:43.536Z,22.10
2018-08-20T00:55:12.600Z,22.00
2018-08-20T00:57:45.119Z,22.00
2018-08-20T01:00:13.451Z,22.00
2018-08-20T01:02:41.755Z,22.00
2018-08-20T01:05:10.063Z,22.00
2018-08-20T01:07:38.366Z,21.80
2018-08-20T01:10:07.734Z,21.80
2018-08-20T01:12:36.053Z,21.90
2018-08-20T01:15:04.604Z,21.90
2018-08-20T01:17:32.936Z,21.90
2018-08-20T01:20:01.422Z,21.90
2018-08-20T01:22:29.734Z,21.80
2018-08-20T01:24:58.024Z,21.80
2018-08-20T01:27:29.432Z,21.80
2018-08-20T01:29:57.799Z,21.80
2018-08-20T01:32:26.154Z,21.70
2018-08-20T01:34:54.473Z,21.70
2018-08-20T01:37:22.771Z,21.70
2018-08-20T01:39:51.295Z,21.70
2018-08-20T01:42:19.704Z,21.70
2018-08-20T01:44:48.468Z,21.60
2018-08-20T01:47:23.396Z,21.60
2018-08-20T01:49:51.682Z,21.60
2018-08-20T01:52:19.982Z,21.60
2018-08-20T01:54:48.294Z,21.60
2018-08-20T01:57:16.599Z,21.50
2018-08-20T01:59:44.907Z,21.50
2018-08-20T02:02:13.240Z,21.50
2018-08-20T02:04:41.558Z,21.50
2018-08-20T02:07:09.878Z,21.50
2018-08-20T02:09:38.150Z,21.50
2018-08-20T02:12:06.477Z,21.50
2018-08-20T02:14:34.759Z,21.50
2018-08-20T02:17:03.069Z,21.50
2018-08-20T02:19:31.415Z,21.40
2018-08-20T02:21:59.877Z,21.40
2018-08-20T02:24:28.162Z,21.40
2018-08-20T02:26:56.495Z,21.30
2018-08-20T02:29:24.810Z,21.30
2018-08-20T02:31:53.103Z,21.30
2018-08-20T02:34:21.383Z,21.20
2018-08-20T02:36:49.710Z,21.20
2018-08-20T02:39:18.032Z,21.30
2018-08-20T02:41:46.352Z,21.20
2018-08-20T02:44:14.672Z,21.20
2018-08-20T02:46:50.675Z,21.20
2018-08-20T02:49:19.211Z,21.10
2018-08-20T02:51:48.538Z,21.10
2018-08-20T02:54:16.960Z,21.10
2018-08-20T02:56:45.310Z,21.10
2018-08-20T02:59:14.396Z,21.00
2018-08-20T03:01:42.715Z,21.00
2018-08-20T03:04:11.022Z,21.10
2018-08-20T03:06:39.622Z,21.00
2018-08-20T03:09:10.152Z,21.00
2018-08-20T03:11:38.629Z,21.00
2018-08-20T03:14:07.003Z,21.00
2018-08-20T03:16:36.016Z,20.90
2018-08-20T03:19:04.614Z,20.90
2018-08-20T03:21:32.928Z,20.90
2018-08-20T03:24:01.247Z,20.80
2018-08-20T03:26:30.014Z,20.80
2018-08-20T03:28:58.670Z,20.80
2018-08-20T03:31:26.987Z,20.80
2018-08-20T03:33:55.279Z,20.70
2018-08-20T03:36:23.857Z,20.70
2018-08-20T03:38:52.176Z,20.70
2018-08-20T03:41:20.598Z,20.60
2018-08-20T03:43:49.059Z,20.60
2018-08-20T03:46:17.370Z,20.60
2018-08-20T03:48:45.686Z,20.50
2018-08-20T03:51:13.990Z,20.50
2018-08-20T03:53:42.319Z,20.50
2018-08-20T03:56:10.626Z,20.50
2018-08-20T03:58:38.952Z,20.50
2018-08-20T04:01:07.242Z,20.50
2018-08-20T04:03:35.560Z,20.50
2018-08-20T04:06:03.936Z,20.50
2018-08-20T04:08:32.237Z,20.50
2018-08-20T04:11:00.602Z,20.50
2018-08-20T04:13:28.937Z,20.50
2018-08-20T04:15:57.253Z,20.50
2018-08-20T04:18:25.586Z,20.40
2018-08-20T04:20:53.905Z,20.50
2018-08-20T04:23:22.247Z,20.50
2018-08-20T04:25:50.566Z,20.40
2018-08-20T04:28:18.937Z,20.30
2018-08-20T04:30:47.470Z,20.40
2018-08-20T04:33:15.824Z,20.40
2018-08-20T04:35:44.220Z,20.40
2018-08-20T04:38:12.579Z,20.30
2018-08-20T04:40:40.957Z,20.20
2018-08-20T04:43:09.746Z,20.30
2018-08-20T04:45:38.126Z,20.30
2018-08-20T04:48:06.930Z,20.30
2018-08-20T04:50:35.278Z,20.30
2018-08-20T04:53:03.634Z,20.30
2018-08-20T04:55:32.012Z,20.30
2018-08-20T04:58:00.347Z,20.10
2018-08-20T05:00:28.930Z,20.00
2018-08-20T05:02:57.323Z,19.90
2018-08-20T05:05:25.733Z,19.90
2018-08-20T05:07:54.083Z,19.90
2018-08-20T05:10:22.429Z,19.90
2018-08-20T05:12:50.808Z,20.00
2018-08-20T05:15:19.281Z,19.90
2018-08-20T05:17:47.812Z,20.00
2018-08-20T05:20:16.204Z,20.10
2018-08-20T05:22:44.554Z,20.10
2018-08-20T05:25:13.081Z,20.00
2018-08-20T05:27:41.438Z,20.10
2018-08-20T05:30:10.256Z,20.20
2018-08-20T05:32:38.810Z,20.20
2018-08-20T05:35:07.634Z,20.20
2018-08-20T05:37:36.150Z,20.00
2018-08-20T05:40:04.653Z,20.10
2018-08-20T05:42:32.997Z,20.20
2018-08-20T05:45:01.315Z,20.30
2018-08-20T05:47:29.653Z,20.30
2018-08-20T05:49:57.956Z,20.30
2018-08-20T05:52:26.305Z,20.10
2018-08-20T05:54:54.650Z,20.20
2018-08-20T05:57:23.094Z,20.10
2018-08-20T05:59:51.441Z,20.00
2018-08-20T06:02:19.759Z,20.10
2018-08-20T06:04:48.079Z,20.30
2018-08-20T06:07:16.474Z,20.40
2018-08-20T06:09:44.775Z,20.50
2018-08-20T06:12:13.065Z,20.60
2018-08-20T06:14:41.452Z,20.50
2018-08-20T06:17:09.820Z,20.60
2018-08-20T06:19:38.789Z,20.70
2018-08-20T06:22:07.196Z,20.80
2018-08-20T06:24:35.567Z,21.00
2018-08-20T06:27:03.900Z,21.10
2018-08-20T06:29:32.251Z,21.20
2018-08-20T06:32:00.571Z,21.20
2018-08-20T06:34:28.890Z,21.20
2018-08-20T06:36:57.360Z,21.30
2018-08-20T06:39:25.697Z,21.20
2018-08-20T06:41:53.987Z,21.30
2018-08-20T06:44:22.345Z,21.30
2018-08-20T06:46:50.824Z,21.10
2018-08-20T06:49:19.547Z,21.30
2018-08-20T06:51:48.010Z,21.20
2018-08-20T06:54:16.319Z,21.40
2018-08-20T06:56:44.640Z,21.50
2018-08-20T06:59:12.975Z,21.50
2018-08-20T07:01:41.351Z,21.50
2018-08-20T07:04:09.825Z,21.60
2018-08-20T07:06:38.224Z,21.60
2018-08-20T07:09:07.181Z,21.70
2018-08-20T07:11:35.542Z,21.80
2018-08-20T07:14:03.918Z,21.90
2018-08-20T07:16:32.311Z,22.00
2018-08-20T07:19:00.674Z,22.10
2018-08-20T07:21:29.012Z,22.10
2018-08-20T07:23:57.524Z,22.20
2018-08-20T07:26:25.778Z,22.20
2018-08-20T07:28:54.167Z,22.20
2018-08-20T07:31:22.648Z,22.30
2018-08-20T07:33:51.064Z,22.40
2018-08-20T07:36:19.386Z,22.40
2018-08-20T07:38:47.744Z,22.30
2018-08-20T07:41:16.159Z,22.40
2018-08-20T07:43:45.029Z,22.30
2018-08-20T07:46:13.379Z,22.30
2018-08-20T07:48:41.698Z,22.30
2018-08-20T07:51:10.017Z,22.40
2018-08-20T07:53:38.299Z,22.50
2018-08-20T07:56:06.856Z,22.50
2018-08-20T08:01:09.843Z,22.70
2018-08-20T08:03:38.141Z,22.60
2018-08-20T08:06:06.434Z,22.70
2018-08-20T08:08:34.953Z,22.70
2018-08-20T08:11:03.270Z,22.80
2018-08-20T08:13:31.578Z,22.90
2018-08-20T08:15:59.967Z,23.00
2018-08-20T08:18:28.274Z,22.90
2018-08-20T08:20:56.619Z,23.00
2018-08-20T08:23:24.944Z,22.90
2018-08-20T08:25:53.266Z,22.80
2018-08-20T08:28:21.766Z,23.00
2018-08-20T08:30:50.218Z,23.00
2018-08-20T08:33:18.543Z,23.00
2018-08-20T08:35:47.082Z,22.90
2018-08-20T08:38:15.534Z,23.00
2018-08-20T08:40:43.856Z,23.10
2018-08-20T08:43:12.152Z,23.10
2018-08-20T08:45:40.578Z,23.20
2018-08-20T08:48:09.020Z,23.20
2018-08-20T08:50:37.429Z,23.30
2018-08-20T08:53:05.770Z,23.60
2018-08-20T08:55:34.228Z,23.60
2018-08-20T08:58:02.541Z,23.70
2018-08-20T09:00:30.927Z,23.50
2018-08-20T09:02:59.310Z,23.30
2018-08-20T09:05:27.767Z,23.30
2018-08-20T09:07:56.209Z,23.60
2018-08-20T09:10:24.758Z,23.80
2018-08-20T09:12:53.108Z,23.90
2018-08-20T09:15:21.559Z,24.00
2018-08-20T09:17:49.911Z,24.00
2018-08-20T09:20:18.542Z,23.90
2018-08-20T09:22:46.841Z,24.00
2018-08-20T09:25:15.549Z,24.00
2018-08-20T09:27:44.839Z,24.00
2018-08-20T09:30:22.502Z,24.10
2018-08-20T09:32:50.854Z,24.30
2018-08-20T09:35:19.199Z,24.40
2018-08-20T09:37:47.531Z,24.20
2018-08-20T09:40:15.856Z,24.00
2018-08-20T09:42:44.516Z,24.10
2018-08-20T09:45:13.253Z,23.80
2018-08-20T09:47:44.195Z,24.10
2018-08-20T09:50:13.954Z,24.30
2018-08-20T09:52:42.899Z,24.50
2018-08-20T09:55:11.208Z,24.80
2018-08-20T09:57:39.655Z,24.90
2018-08-20T10:00:10.978Z,24.30
2018-08-20T10:02:39.323Z,24.60
2018-08-20T10:05:07.610Z,24.90
2018-08-20T10:07:35.963Z,25.00
2018-08-20T10:10:04.935Z,25.20
2018-08-20T10:12:33.262Z,25.30
2018-08-20T10:15:01.532Z,25.50
2018-08-20T10:17:29.864Z,25.60
2018-08-20T10:19:58.150Z,25.70
2018-08-20T10:22:26.450Z,25.80
2018-08-20T10:24:54.723Z,25.90
2018-08-20T10:27:23.013Z,26.10
2018-08-20T10:29:51.435Z,26.10
2018-08-20T10:32:19.762Z,26.20
2018-08-20T10:34:48.066Z,26.20
2018-08-20T10:37:16.357Z,26.20
2018-08-20T10:39:44.660Z,25.70
2018-08-20T10:42:13.000Z,25.90
2018-08-20T10:44:46.752Z,25.90
2018-08-20T10:47:15.167Z,26.20
2018-08-20T10:49:43.469Z,26.20
2018-08-20T10:52:11.843Z,26.40
2018-08-20T10:54:40.131Z,26.50
2018-08-20T10:57:08.831Z,26.30
2018-08-20T10:59:38.271Z,26.50
2018-08-20T11:02:07.047Z,26.10
2018-08-20T11:04:35.335Z,26.10
2018-08-20T11:07:03.672Z,25.90
2018-08-20T11:09:32.006Z,25.90
2018-08-20T11:12:00.528Z,26.00
2018-08-20T11:14:28.890Z,26.10
2018-08-20T11:16:57.239Z,26.20
2018-08-20T11:19:25.571Z,26.30
2018-08-20T11:21:53.916Z,26.40
2018-08-20T11:24:22.322Z,26.30
2018-08-20T11:26:50.991Z,26.30
2018-08-20T11:29:19.770Z,26.60
2018-08-20T11:31:48.180Z,26.80
2018-08-20T11:34:16.741Z,26.80
2018-08-20T11:36:45.129Z,27.00
2018-08-20T11:39:13.415Z,27.00
2018-08-20T11:41:41.740Z,26.90
2018-08-20T11:44:10.288Z,26.70
2018-08-20T11:46:38.678Z,26.70
2018-08-20T11:49:07.076Z,26.30
2018-08-20T11:51:35.368Z,26.20
2018-08-20T11:54:03.636Z,26.50
2018-08-20T11:56:31.969Z,26.80
2018-08-20T11:59:00.291Z,27.00
2018-08-20T12:01:28.628Z,27.10
2018-08-20T12:03:56.940Z,27.00
2018-08-20T12:06:26.170Z,27.10
2018-08-20T12:08:54.533Z,27.30
2018-08-20T12:11:28.277Z,27.40
2018-08-20T12:13:56.597Z,27.40
2018-08-20T12:16:24.960Z,27.40
2018-08-20T12:18:53.307Z,27.40
2018-08-20T12:21:21.625Z,27.40
2018-08-20T12:23:49.936Z,26.80
2018-08-20T12:26:18.284Z,27.20
2018-08-20T12:28:46.671Z,27.50
2018-08-20T12:31:15.254Z,27.80
2018-08-20T12:33:43.595Z,28.00
2018-08-20T12:36:11.928Z,28.20
2018-08-20T12:38:40.344Z,28.40
2018-08-20T12:41:08.623Z,28.60
2018-08-20T12:43:36.958Z,28.60
2018-08-20T12:46:05.264Z,28.80
2018-08-20T12:48:33.650Z,28.90
2018-08-20T12:51:01.985Z,28.90
2018-08-20T12:53:30.323Z,28.80
2018-08-20T12:55:58.642Z,28.40
2018-08-20T12:58:27.016Z,28.30
2018-08-20T13:00:55.345Z,28.40
2018-08-20T13:03:23.671Z,28.40
2018-08-20T13:05:51.994Z,28.00
2018-08-20T13:08:20.299Z,28.00
2018-08-20T13:10:48.595Z,28.20
2018-08-20T13:13:16.929Z,28.20
2018-08-20T13:15:45.388Z,28.10
2018-08-20T13:18:13.611Z,28.20
2018-08-20T13:20:41.924Z,28.10
2018-08-20T13:23:10.226Z,27.90
2018-08-20T13:25:38.522Z,28.20
2018-08-20T13:28:06.893Z,28.10
2018-08-20T13:30:35.212Z,28.30
2018-08-20T13:33:03.499Z,28.40
2018-08-20T13:35:31.859Z,28.30
2018-08-20T13:38:00.230Z,28.40
2018-08-20T13:40:28.631Z,28.60
2018-08-20T13:42:56.966Z,28.50
2018-08-20T13:45:25.236Z,28.40
2018-08-20T13:47:53.569Z,28.50
2018-08-20T13:50:21.894Z,28.70
2018-08-20T13:52:50.242Z,28.30
2018-08-20T13:55:18.544Z,28.40
2018-08-20T13:57:48.880Z,28.30
2018-08-20T14:00:18.510Z,28.40
2018-08-20T14:02:46.820Z,28.70
2018-08-20T14:05:16.175Z,28.60
2018-08-20T14:07:44.764Z,28.80
2018-08-20T14:10:13.327Z,28.90
2018-08-20T14:12:42.327Z,28.90
2018-08-20T14:15:11.812Z,28.90
2018-08-20T14:17:41.291Z,28.50
2018-08-20T14:20:13.192Z,29.10
2018-08-20T14:22:42.152Z,29.80
2018-08-20T14:25:10.554Z,30.60
2018-08-20T14:27:38.831Z,31.10
2018-08-20T14:30:09.252Z,31.40
2018-08-20T14:32:37.583Z,31.10
2018-08-20T14:35:06.536Z,30.60
2018-08-20T14:37:34.892Z,30.60
2018-08-20T14:40:03.537Z,29.90
2018-08-20T14:42:32.244Z,29.90
2018-08-20T14:45:00.571Z,30.00
2018-08-20T14:47:28.909Z,30.20
2018-08-20T14:49:57.213Z,30.00
2018-08-20T14:52:25.513Z,30.40
2018-08-20T14:54:53.812Z,30.80
2018-08-20T14:57:22.128Z,31.20
2018-08-20T14:59:50.492Z,31.20
2018-08-20T15:02:18.876Z,31.60
2018-08-20T15:04:47.179Z,31.40
2018-08-20T15:07:15.514Z,31.60
2018-08-20T15:09:43.920Z,31.60
2018-08-20T15:12:15.227Z,31.20
2018-08-20T15:14:43.609Z,30.60
2018-08-20T15:17:11.924Z,30.80
2018-08-20T15:19:40.233Z,31.60
2018-08-20T15:22:08.530Z,32.60
2018-08-20T15:24:36.882Z,33.10
2018-08-20T15:27:05.186Z,33.40
2018-08-20T15:29:33.524Z,34.70
2018-08-20T15:32:01.836Z,34.90
2018-08-20T15:34:30.197Z,34.40
2018-08-20T15:36:58.529Z,34.70
2018-08-20T15:39:26.852Z,35.50
2018-08-20T15:41:55.180Z,35.10
2018-08-20T15:44:23.483Z,34.30
2018-08-20T15:46:51.759Z,33.90
2018-08-20T15:49:20.076Z,32.70
2018-08-20T15:51:48.418Z,32.50
2018-08-20T15:54:16.740Z,31.80
2018-08-20T15:56:45.024Z,30.80
2018-08-20T15:59:13.486Z,31.20
2018-08-20T16:01:41.794Z,31.30
2018-08-20T16:04:10.132Z,31.30
2018-08-20T16:06:38.433Z,31.20
2018-08-20T16:09:08.060Z,31.10
2018-08-20T16:11:36.446Z,31.20
2018-08-20T16:14:04.796Z,32.00
2018-08-20T16:16:33.168Z,32.90
2018-08-20T16:19:01.541Z,32.70
2018-08-20T16:21:29.806Z,32.60
2018-08-20T16:23:58.148Z,32.20
2018-08-20T16:26:26.478Z,31.80
2018-08-20T16:28:54.836Z,31.50
2018-08-20T16:31:23.139Z,31.20
2018-08-20T16:33:51.471Z,31.00
2018-08-20T16:36:19.787Z,30.70
2018-08-20T16:38:48.125Z,30.50
2018-08-20T16:41:16.538Z,30.00
2018-08-20T16:43:44.875Z,29.20
2018-08-20T16:46:13.212Z,29.10
2018-08-20T16:48:41.531Z,28.90
2018-08-20T16:51:09.859Z,28.90
2018-08-20T16:53:38.176Z,29.00
2018-08-20T16:56:06.479Z,29.10
2018-08-20T16:58:34.780Z,29.00
2018-08-20T17:01:03.130Z,28.60
2018-08-20T17:03:31.424Z,28.20
2018-08-20T17:05:59.911Z,28.50
2018-08-20T17:08:31.494Z,28.60
2018-08-20T17:10:59.827Z,28.30
2018-08-20T17:13:28.140Z,27.90
2018-08-20T17:15:56.703Z,28.20
2018-08-20T17:18:25.008Z,28.30
2018-08-20T17:20:53.355Z,28.30
2018-08-20T17:23:23.091Z,28.30
2018-08-20T17:25:54.553Z,28.40
2018-08-20T17:28:24.420Z,28.30
2018-08-20T17:30:58.788Z,28.30
2018-08-20T17:33:31.049Z,28.30
2018-08-20T17:35:59.453Z,28.20
2018-08-20T17:38:27.793Z,28.10
2018-08-20T17:40:56.110Z,27.90
2018-08-20T17:43:24.389Z,27.70
2018-08-20T17:45:55.009Z,27.70
2018-08-20T17:48:30.718Z,27.50
2018-08-20T17:50:59.319Z,27.50
2018-08-20T17:53:39.020Z,27.30
2018-08-20T17:56:07.687Z,26.80
2018-08-20T17:58:36.108Z,26.60
2018-08-20T18:01:04.985Z,26.60
2018-08-20T18:03:34.402Z,26.50
2018-08-20T18:06:04.735Z,26.50
2018-08-20T18:08:34.119Z,26.50
2018-08-20T18:11:02.963Z,26.50
2018-08-20T18:13:42.035Z,26.60
2018-08-20T18:16:11.896Z,26.60
2018-08-20T18:18:41.563Z,26.60
2018-08-20T18:21:09.892Z,26.60
2018-08-20T18:23:38.722Z,26.60
2018-08-20T18:26:07.303Z,26.60
2018-08-20T18:28:44.040Z,26.50
2018-08-20T18:31:20.240Z,26.50
2018-08-20T18:33:49.048Z,26.40
2018-08-20T18:36:18.886Z,26.30
2018-08-20T18:38:56.499Z,26.30
2018-08-20T18:42:06.236Z,26.20
2018-08-20T18:44:34.771Z,26.10
2018-08-20T18:47:03.486Z,26.00
2018-08-20T18:49:31.837Z,26.00
2018-08-20T18:52:11.826Z,25.90
2018-08-20T18:54:43.261Z,25.90
2018-08-20T18:57:17.894Z,25.90
2018-08-20T18:59:53.210Z,25.80
2018-08-20T19:02:37.778Z,25.80
2018-08-20T19:05:11.125Z,25.70
2018-08-20T19:07:40.027Z,25.70
2018-08-20T19:10:27.732Z,25.60
2018-08-20T19:12:56.432Z,25.50
2018-08-20T19:15:56.152Z,25.50
2018-08-20T19:18:40.018Z,25.50
2018-08-20T19:21:12.941Z,25.50
2018-08-20T19:23:41.371Z,25.50
2018-08-20T19:26:09.723Z,25.40
2018-08-20T19:28:38.033Z,25.40
2018-08-20T19:31:06.512Z,25.40
2018-08-20T19:33:34.891Z,25.20
2018-08-20T19:36:03.504Z,25.20
2018-08-20T19:38:31.839Z,25.20
2018-08-20T19:41:07.604Z,25.00
2018-08-20T19:43:41.571Z,25.00
2018-08-20T19:46:09.995Z,25.00
2018-08-20T19:48:38.323Z,25.00
2018-08-20T19:51:08.842Z,25.00
2018-08-20T19:53:37.277Z,25.10
2018-08-20T19:56:10.656Z,24.90
2018-08-20T19:58:39.676Z,25.00
2018-08-20T20:01:10.795Z,24.90
2018-08-20T20:03:42.403Z,24.90
2018-08-20T20:06:10.728Z,24.80
2018-08-20T20:08:39.159Z,24.70
2018-08-20T20:11:14.110Z,24.70
2018-08-20T20:13:42.737Z,24.70
2018-08-20T20:16:11.056Z,24.60
2018-08-20T20:18:39.385Z,24.60
2018-08-20T20:21:07.770Z,24.60
2018-08-20T20:23:36.142Z,24.50
2018-08-20T20:26:04.479Z,24.50
2018-08-20T20:28:33.036Z,24.60
2018-08-20T20:31:01.339Z,24.50
2018-08-20T20:33:30.017Z,24.50
2018-08-20T20:35:58.352Z,24.50
2018-08-20T20:38:26.955Z,24.30
2018-08-20T20:40:55.224Z,24.30
2018-08-20T20:43:29.058Z,24.30
2018-08-20T20:45:57.564Z,24.20
2018-08-20T20:48:26.800Z,24.30
2018-08-20T20:50:55.199Z,24.30
2018-08-20T20:53:23.692Z,24.30
2018-08-20T20:55:52.109Z,24.30
2018-08-20T20:58:26.687Z,24.30
2018-08-20T21:00:55.036Z,24.20
2018-08-20T21:03:23.719Z,24.30
2018-08-20T21:05:52.144Z,24.20
2018-08-20T21:08:20.669Z,24.10
2018-08-20T21:10:49.087Z,24.00
2018-08-20T21:13:18.904Z,24.00
2018-08-20T21:15:52.849Z,24.00
2018-08-20T21:18:21.495Z,23.90
2018-08-20T21:20:50.119Z,23.80
2018-08-20T21:23:18.805Z,23.80
2018-08-20T21:25:47.117Z,23.80
2018-08-20T21:28:15.541Z,23.70
2018-08-20T21:30:46.364Z,23.70
2018-08-20T21:33:15.918Z,23.70
2018-08-20T21:35:44.396Z,23.80
2018-08-20T21:38:12.908Z,23.80
2018-08-20T21:40:41.461Z,23.80
2018-08-20T21:43:09.896Z,23.80
2018-08-20T21:45:38.382Z,23.90
2018-08-20T21:48:06.823Z,23.90
2018-08-20T21:50:36.420Z,23.90
2018-08-20T21:53:04.820Z,23.90
2018-08-20T21:55:33.312Z,23.90
2018-08-20T21:58:01.807Z,23.90
2018-08-20T22:00:31.046Z,23.90
2018-08-20T22:03:00.544Z,23.90
2018-08-20T22:05:29.487Z,23.90
2018-08-20T22:07:59.759Z,23.90
2018-08-20T22:10:29.307Z,23.90
2018-08-20T22:12:57.719Z,23.90
2018-08-20T22:15:26.171Z,23.90
2018-08-20T22:17:55.073Z,23.90
2018-08-20T22:20:23.412Z,23.80
2018-08-20T22:22:51.938Z,24.00
2018-08-20T22:25:20.277Z,23.80
2018-08-20T22:27:55.252Z,23.80
2018-08-20T22:30:23.998Z,23.80
2018-08-20T22:32:52.406Z,23.80
2018-08-20T22:35:25.707Z,23.70
2018-08-20T22:37:54.268Z,23.70
2018-08-20T22:40:22.966Z,23.70
2018-08-20T22:42:54.988Z,23.60
2018-08-20T22:45:23.299Z,23.60
2018-08-20T22:47:52.389Z,23.60
2018-08-20T22:50:20.763Z,23.60
2018-08-20T22:52:50.510Z,23.60
2018-08-20T22:55:20.745Z,23.60
2018-08-20T22:58:00.737Z,23.60
2018-08-20T23:00:29.287Z,23.60
2018-08-20T23:02:58.468Z,23.60
2018-08-20T23:05:31.253Z,23.60
2018-08-20T23:08:01.199Z,23.50
2018-08-20T23:10:30.011Z,23.50
2018-08-20T23:12:58.370Z,23.50
2018-08-20T23:15:26.735Z,23.50
2018-08-20T23:17:55.236Z,23.40
2018-08-20T23:20:28.572Z,23.40
2018-08-20T23:22:56.993Z,23.40
2018-08-20T23:25:25.391Z,23.40
2018-08-20T23:27:53.792Z,23.30
2018-08-20T23:30:24.921Z,23.40
2018-08-20T23:32:53.333Z,23.30
2018-08-20T23:35:21.741Z,23.40
2018-08-20T23:37:50.249Z,23.30
2018-08-20T23:40:18.745Z,23.30
2018-08-20T23:42:47.163Z,23.30
2018-08-20T23:45:15.569Z,23.30
2018-08-20T23:47:43.891Z,23.30
2018-08-20T23:50:12.226Z,23.30
2018-08-20T23:52:40.679Z,23.30
2018-08-20T23:55:09.043Z,23.30
2018-08-20T23:57:37.439Z,23.30
